Fair Seas — V7PD2 — position and weather

sailwx.info

Track history (hours):
 
Tides and Currents Weather Stations Pressure Air Temp Water Temp Dewpoint Dewpoint Depression Visibility Wind Speed Wind Dir Waves Ship Positions

Fair Seas

Last reported at 2014-Sep-18 14:10 UTC. Time now 2014-Oct-25 18:21 UTC.
Position S 27°40' E 033°39'.
Warning: this ship's position is 37 days out of date.

Length 250 m; draft 8.1 m.

Type: Tanker. MMSI: 538003211.

Date/timePositionNaut miles runAvg speedWind from/ knotsBaromVisibWave heightAir tempDewpointWater temp
2014-Sep-18 14:10S 27°40' E 033°39'812.0
2014-Sep-18 13:33S 27°40' E 033°31'1110.9
2014-Sep-18 12:32S 27°48' E 033°22'1111.2
2014-Sep-18 11:32S 27°58' E 033°15'1111.2
2014-Sep-18 10:33S 28°07' E 033°09'1610.7
2014-Sep-18 09:04S 28°21' E 032°60'510.4
2014-Sep-18 08:32S 28°26' E 032°57'1310.3
2014-Sep-18 07:19S 28°36' E 032°49'810.0
2014-Sep-18 06:34S 28°43' E 032°45'10 9.8
2014-Sep-18 05:33S 28°51' E 032°39'1010.0
2014-Sep-18 04:33S 28°59' E 032°32'1010.3
2014-Sep-18 03:34S 29°07' E 032°24'3110.1
2014-Sep-18 00:28S 29°24' E 031°54'1213.0
2014-Sep-17 23:33S 29°30' E 031°43'1413.8
2014-Sep-17 22:33S 29°38' E 031°30'1413.9
2014-Sep-17 21:33S 29°46' E 031°17'1312.9
2014-Sep-17 20:34S 29°52' E 031°04'1 1.1
2014-Sep-17 19:22S 29°52' E 031°02'0 0.0
2014-Sep-17 18:04S 29°52' E 031°02'0 0.0
2014-Sep-17 17:28S 29°52' E 031°02'0 0.0
2014-Sep-17 16:10S 29°52' E 031°02'0 0.0
2014-Sep-17 14:16S 29°52' E 031°02'0 0.0
2014-Sep-17 13:22S 29°52' E 031°02'0 0.0
2014-Sep-17 11:10S 29°52' E 031°02'0 0.0
2014-Sep-17 07:17S 29°52' E 031°02'1 1.2
2014-Sep-17 06:33S 29°53' E 031°03'5 4.7
2014-Sep-17 05:32S 29°49' E 031°06'2 1.6
2014-Sep-17 04:33S 29°48' E 031°08'4 3.7
2014-Sep-17 03:23S 29°45' E 031°12'0 0.0
2014-Sep-17 01:29S 29°45' E 031°12'0 0.0
2014-Sep-17 00:17S 29°45' E 031°12'0 0.0
2014-Sep-16 23:23S 29°45' E 031°12'0 0.0
2014-Sep-16 22:17S 29°45' E 031°12'0 0.1
2014-Sep-16 21:29S 29°45' E 031°11'0 0.0
2014-Sep-16 20:29S 29°45' E 031°11'0 0.0
2014-Sep-16 19:23S 29°45' E 031°11'0 0.0
2014-Sep-16 18:29S 29°45' E 031°11'0 0.0
2014-Sep-16 17:29S 29°45' E 031°11'0 0.1
2014-Sep-16 16:29S 29°45' E 031°11'0 0.0
2014-Sep-16 15:11S 29°45' E 031°11'0 0.0
2014-Sep-16 14:23S 29°45' E 031°11'0 0.0
2014-Sep-16 13:17S 29°45' E 031°11'0 0.0
2014-Sep-16 12:29S 29°45' E 031°11'0 0.0
2014-Sep-16 11:17S 29°45' E 031°11'0 0.1
2014-Sep-16 10:29S 29°45' E 031°11'0 0.5
2014-Sep-16 09:32S 29°46' E 031°11'8 8.2
2014-Sep-16 08:33S 29°53' E 031°08'0 0.2
2014-Sep-16 07:33S 29°53' E 031°08'1 1.3
2014-Sep-16 06:33S 29°52' E 031°09'7 7.2
2014-Sep-16 05:32S 29°60' E 031°07'1010.6
2014-Sep-16 04:33S 30°10' E 031°06'7 7.2
2014-Sep-16 03:33S 30°17' E 031°04'10 9.9
2014-Sep-16 02:33S 30°27' E 031°02'9 9.4
2014-Sep-16 01:33S 30°36' E 031°00'10 9.2
2014-Sep-16 00:31S 30°45' E 030°57'9 9.3
2014-Sep-15 23:33S 30°53' E 030°51'9 9.6
2014-Sep-15 22:33S 31°01' E 030°46'10 9.9
2014-Sep-15 21:33S 31°10' E 030°40'63 9.9
2014-Sep-15 15:09S 32°01' E 029°56'710.5
2014-Sep-15 14:31S 32°05' E 029°51'1510.5
2014-Sep-15 13:08S 32°16' E 029°38'610.6
2014-Sep-15 12:33S 32°20' E 029°33'1010.6
2014-Sep-15 11:34S 32°27' E 029°24'7510.2
2014-Sep-15 04:11S 33°19' E 028°20'6010.4
2014-Sep-14 22:27S 33°58' E 027°25'1211.5
2014-Sep-14 21:26S 34°03' E 027°12'5811.8
2014-Sep-14 16:28S 34°26' E 026°07'15811.2
2014-Sep-14 02:24S 34°58' E 022°59'  
Track history (hours):
 
Tides and Currents Weather Stations Pressure Air Temp Water Temp Dewpoint Dewpoint Depression Visibility Wind Speed Wind Dir Waves Ship Positions

Fair Seas

Last reported at 2014-Sep-18 14:10 UTC. Time now 2014-Oct-25 18:21 UTC.
Position S 27°40' E 033°39'.
Warning: this ship's position is 37 days out of date.

Length 250 m; draft 8.1 m.

Type: Tanker. MMSI: 538003211.

Date/timePositionNaut miles runAvg speedWind from/ knotsBaromVisibWave heightAir tempDewpointWater temp
2014-Sep-18 14:10S 27°40' E 033°39'812.0
2014-Sep-18 13:33S 27°40' E 033°31'1110.9
2014-Sep-18 12:32S 27°48' E 033°22'1111.2
2014-Sep-18 11:32S 27°58' E 033°15'1111.2
2014-Sep-18 10:33S 28°07' E 033°09'1610.7
2014-Sep-18 09:04S 28°21' E 032°60'510.4
2014-Sep-18 08:32S 28°26' E 032°57'1310.3
2014-Sep-18 07:19S 28°36' E 032°49'810.0
2014-Sep-18 06:34S 28°43' E 032°45'10 9.8
2014-Sep-18 05:33S 28°51' E 032°39'1010.0
2014-Sep-18 04:33S 28°59' E 032°32'1010.3
2014-Sep-18 03:34S 29°07' E 032°24'3110.1
2014-Sep-18 00:28S 29°24' E 031°54'1213.0
2014-Sep-17 23:33S 29°30' E 031°43'1413.8
2014-Sep-17 22:33S 29°38' E 031°30'1413.9
2014-Sep-17 21:33S 29°46' E 031°17'1312.9
2014-Sep-17 20:34S 29°52' E 031°04'1 1.1
2014-Sep-17 19:22S 29°52' E 031°02'0 0.0
2014-Sep-17 18:04S 29°52' E 031°02'0 0.0
2014-Sep-17 17:28S 29°52' E 031°02'0 0.0
2014-Sep-17 16:10S 29°52' E 031°02'0 0.0
2014-Sep-17 14:16S 29°52' E 031°02'0 0.0
2014-Sep-17 13:22S 29°52' E 031°02'0 0.0
2014-Sep-17 11:10S 29°52' E 031°02'0 0.0
2014-Sep-17 07:17S 29°52' E 031°02'1 1.2
2014-Sep-17 06:33S 29°53' E 031°03'5 4.7
2014-Sep-17 05:32S 29°49' E 031°06'2 1.6
2014-Sep-17 04:33S 29°48' E 031°08'4 3.7
2014-Sep-17 03:23S 29°45' E 031°12'0 0.0
2014-Sep-17 01:29S 29°45' E 031°12'0 0.0
2014-Sep-17 00:17S 29°45' E 031°12'0 0.0
2014-Sep-16 23:23S 29°45' E 031°12'0 0.0
2014-Sep-16 22:17S 29°45' E 031°12'0 0.1
2014-Sep-16 21:29S 29°45' E 031°11'0 0.0
2014-Sep-16 20:29S 29°45' E 031°11'0 0.0
2014-Sep-16 19:23S 29°45' E 031°11'0 0.0
2014-Sep-16 18:29S 29°45' E 031°11'0 0.0
2014-Sep-16 17:29S 29°45' E 031°11'0 0.1
2014-Sep-16 16:29S 29°45' E 031°11'0 0.0
2014-Sep-16 15:11S 29°45' E 031°11'0 0.0
2014-Sep-16 14:23S 29°45' E 031°11'0 0.0
2014-Sep-16 13:17S 29°45' E 031°11'0 0.0
2014-Sep-16 12:29S 29°45' E 031°11'0 0.0
2014-Sep-16 11:17S 29°45' E 031°11'0 0.1
2014-Sep-16 10:29S 29°45' E 031°11'0 0.5
2014-Sep-16 09:32S 29°46' E 031°11'8 8.2
2014-Sep-16 08:33S 29°53' E 031°08'0 0.2
2014-Sep-16 07:33S 29°53' E 031°08'1 1.3
2014-Sep-16 06:33S 29°52' E 031°09'7 7.2
2014-Sep-16 05:32S 29°60' E 031°07'1010.6
2014-Sep-16 04:33S 30°10' E 031°06'7 7.2
2014-Sep-16 03:33S 30°17' E 031°04'10 9.9
2014-Sep-16 02:33S 30°27' E 031°02'9 9.4
2014-Sep-16 01:33S 30°36' E 031°00'10 9.2
2014-Sep-16 00:31S 30°45' E 030°57'9 9.3
2014-Sep-15 23:33S 30°53' E 030°51'9 9.6
2014-Sep-15 22:33S 31°01' E 030°46'10 9.9
2014-Sep-15 21:33S 31°10' E 030°40'63 9.9
2014-Sep-15 15:09S 32°01' E 029°56'710.5
2014-Sep-15 14:31S 32°05' E 029°51'1510.5
2014-Sep-15 13:08S 32°16' E 029°38'610.6
2014-Sep-15 12:33S 32°20' E 029°33'1010.6
2014-Sep-15 11:34S 32°27' E 029°24'7510.2
2014-Sep-15 04:11S 33°19' E 028°20'6010.4
2014-Sep-14 22:27S 33°58' E 027°25'1211.5
2014-Sep-14 21:26S 34°03' E 027°12'5811.8
2014-Sep-14 16:28S 34°26' E 026°07'15811.2
2014-Sep-14 02:24S 34°58' E 022°59'  

Dump ship's entire track history